TimeMST,TemperatureF,Dew PointF,Humidity,Sea Level PressureIn,VisibilityMPH,Wind Direction,Wind SpeedMPH,Gust SpeedMPH,PrecipitationIn,Events,Conditions,WindDirDegrees,DateUTC
12:00 AM,35.6,12.2,38,30.23,10.0,WNW,8.1,-,N/A,,Clear,290,2012-11-20 07:00:00
12:53 AM,35.1,17.1,48,30.17,10.0,South,3.5,-,N/A,,Clear,180,2012-11-20 07:53:00
1:53 AM,30.0,14.0,51,30.18,10.0,WSW,6.9,-,N/A,,Clear,240,2012-11-20 08:53:00
2:53 AM,32.0,12.0,44,30.18,10.0,WSW,5.8,-,N/A,,Clear,240,2012-11-20 09:53:00
3:53 AM,30.9,12.9,47,30.19,10.0,Calm,Calm,-,N/A,,Clear,0,2012-11-20 10:53:00
4:53 AM,25.0,10.9,55,30.21,10.0,West,15.0,-,N/A,,Clear,270,2012-11-20 11:53:00
5:53 AM,30.0,16.0,56,30.22,10.0,West,11.5,-,N/A,,Clear,270,2012-11-20 12:53:00
6:53 AM,30.0,15.1,54,30.23,10.0,West,10.4,-,N/A,,Clear,260,2012-11-20 13:53:00
7:53 AM,33.1,16.0,50,30.25,10.0,West,6.9,-,N/A,,Clear,270,2012-11-20 14:53:00
8:53 AM,45.0,19.0,36,30.25,10.0,West,11.5,-,N/A,,Clear,270,2012-11-20 15:53:00
9:53 AM,48.9,18.0,29,30.23,10.0,Variable,5.8,-,N/A,,Clear,0,2012-11-20 16:53:00
10:53 AM,55.0,18.0,23,30.19,10.0,Variable,4.6,-,N/A,,Clear,0,2012-11-20 17:53:00
11:53 AM,60.1,18.0,20,30.17,10.0,Calm,Calm,-,N/A,,Clear,0,2012-11-20 18:53:00
12:53 PM,63.0,17.1,17,30.12,10.0,Calm,Calm,-,N/A,,Clear,0,2012-11-20 19:53:00
1:53 PM,66.9,17.1,15,30.09,10.0,East,8.1,-,N/A,,Clear,100,2012-11-20 20:53:00
2:53 PM,68.0,16.0,14,30.06,10.0,SE,10.4,-,N/A,,Clear,140,2012-11-20 21:53:00
3:53 PM,66.0,16.0,15,30.06,10.0,ESE,9.2,-,N/A,,Clear,120,2012-11-20 22:53:00
4:53 PM,59.0,16.0,19,30.09,10.0,East,5.8,-,N/A,,Clear,80,2012-11-20 23:53:00
5:53 PM,54.0,15.1,22,30.09,10.0,SSE,5.8,-,N/A,,Clear,150,2012-11-21 00:53:00
6:53 PM,53.1,12.0,20,30.09,10.0,South,6.9,-,N/A,,Clear,170,2012-11-21 01:53:00
7:53 PM,54.0,12.9,20,30.08,10.0,SSW,9.2,-,N/A,,Clear,200,2012-11-21 02:53:00
8:53 PM,51.1,12.0,21,30.06,10.0,SSW,12.7,-,N/A,,Clear,210,2012-11-21 03:53:00
9:53 PM,48.0,10.9,22,30.05,10.0,SSW,11.5,-,N/A,,Clear,210,2012-11-21 04:53:00
10:53 PM,48.9,10.9,22,30.02,10.0,SSW,13.8,-,N/A,,Clear,210,2012-11-21 05:53:00
11:53 PM,44.1,10.0,25,30.02,10.0,West,12.7,-,N/A,,Clear,260,2012-11-21 06:53:00